• Join FlightAware (Why Join?)
  • Login
  • US Flag 
07:49PM EST


 

Airport Tracker/Info


-or-


 

Live Flight TrackerFlight Track Log ✈ GJS3618 ✈ 13-Oct-2013 ✈ KOMA - KDEN

Flight Track Log - Related Links

Times and Time Zones

All times are in EDT time to prevent confusion due to time zone crossing. See the GJS3618 flight status page for this flight to view local times or setup timezone preferences in your user account.

Time Position Orientation Groundspeed Altitude Reporting Facility
EDT Latitude Longitude Course Direction KTS MPH feet Rate Location/Type
07:34AM 41.3122 -95.8981 270° West 159 183 1,300  Level Minneapolis Center
07:35AM 41.3144 -95.9006 320° Northwest 158 182 1,500 2,091 Climbing Minneapolis Center
07:36AM 41.3544 -95.9350 327° Northwest 188 216 3,600 1,944 Climbing Minneapolis Center
07:36AM 41.3600 -95.9317 24° Northeast 186 214 3,800 2,656 Climbing Minneapolis Center
07:37AM 41.3678 -96.0111 277° West 234 269 6,300 2,459 Climbing Minneapolis Center
07:37AM 41.3686 -96.0064 77° East 214 246 6,300 2,704 Level Minneapolis Center
07:38AM 41.2445 -96.3620 278° West  Level Estimated
07:38AM 41.3675 -96.1128 269° West 250 288 9,500  Level Minneapolis Center
07:39AM 41.2679 -96.4763 285° West  Level FlightAware Approximate
07:39AM 41.3692 -96.2083 271° West 257 296 12,300  Level Minneapolis Center
07:40AM 41.2523 -96.5931 270° West  Level Estimated
07:40AM 41.3703 -96.3128 271° West 279 321 14,200  Level Minneapolis Center
07:41AM 41.3714 -96.4314 271° West 311 358 15,900 1,785 Climbing Minneapolis Center
07:42AM 41.3728 -96.5569 271° West 334 384 17,800 1,636 Climbing Minneapolis Center
07:43AM 41.3739 -96.6908 271° West 358 412 19,200 1,587 Climbing Minneapolis Center
07:44AM 41.3750 -96.8264 271° West 364 419 21,000 1,785 Climbing Minneapolis Center
07:45AM 41.3769 -96.9658 271° West 373 429 22,800 1,785 Climbing Minneapolis Center
07:46AM 41.3778 -97.1050 271° West 376 433 24,600 1,686 Climbing Minneapolis Center
07:47AM 41.3783 -97.2444 270° West 376 433 26,200 1,388 Climbing Minneapolis Center
07:48AM 41.3786 -97.3856 270° West 380 437 27,400 1,190 Climbing Minneapolis Center
07:49AM 41.3783 -97.5311 270° West 389 448 28,600 1,200 Climbing Minneapolis Center
07:50AM 41.3783 -97.6769 270° West 393 452 29,800 1,190 Climbing Minneapolis Center
07:51AM 41.3797 -97.8206 271° West 390 449 31,000 1,240 Climbing Minneapolis Center
07:52AM 41.3797 -97.9619 270° West 385 443 32,300 1,289 Climbing Minneapolis Center
07:53AM 41.3781 -98.1017 269° West 380 437 33,600 1,240 Climbing Minneapolis Center
07:54AM 41.3778 -98.2283 270° West 373 429 34,800 1,190 Climbing Minneapolis Center
07:55AM 41.3675 -98.3861 265° West 364 419 36,000 595 Climbing Minneapolis Center
07:56AM 41.3400 -98.5003 252° West 370 426 36,000  Level Minneapolis Center
07:57AM 41.3072 -98.6322 252° West 374 430 36,000  Level Minneapolis Center
07:58AM 41.2778 -98.7603 253° West 370 426 36,000  Level Minneapolis Center
07:59AM 41.2469 -98.8872 252° West 364 419 36,000  Level Minneapolis Center
08:00AM 41.2147 -99.0136 251° West 363 418 36,000  Level Minneapolis Center
08:01AM 41.1831 -99.1386 251° West 359 413 36,000  Level Minneapolis Center
08:02AM 41.1492 -99.2731 252° West 360 414 36,000  Level Minneapolis Center
08:03AM 41.1167 -99.4008 251° West 364 419 36,000  Level Minneapolis Center
08:04AM 41.0842 -99.5281 251° West 365 420 36,000  Level Minneapolis Center
08:05AM 41.0514 -99.6558 251° West 366 421 36,000  Level Minneapolis Center
08:06AM 41.0192 -99.7831 251° West 365 420 36,000  Level Minneapolis Center
08:07AM 40.9864 -99.9086 251° West 363 418 36,000  Level Minneapolis Center
08:08AM 40.9539 -100.0347 251° West 362 417 36,000  Level Minneapolis Center
08:09AM 40.9217 -100.1608 251° West 362 417 36,000  Level Minneapolis Center
08:10AM 40.8883 -100.2864 251° West 361 415 36,000  Level Minneapolis Center
08:11AM 40.8542 -100.4108 250° West 361 415 36,000  Level Minneapolis Center
08:12AM 40.8217 -100.5353 251° West 360 414 36,000  Level Minneapolis Center
08:13AM 40.7778 -100.7108 252° West 362 417 36,000  Level Denver Center
08:14AM 40.7575 -100.8314 258° West 369 425 36,000  Level Denver Center
08:15AM 40.7372 -100.9556 258° West 362 417 36,000  Level Denver Center
08:16AM 40.7133 -101.0997 258° West 361 415 36,000  Level Denver Center
08:17AM 40.6919 -101.2233 257° West 361 415 36,000  Level Denver Center
08:18AM 40.6700 -101.3469 257° West 362 417 36,000  Level Denver Center
08:19AM 40.6697 -101.4714 270° West 364 419 36,000  Level Denver Center
08:20AM 40.7519 -101.5906 312° West 397 457 36,000  Level Denver Center
08:21AM 40.8319 -101.6856 318° Northwest 402 463 36,000  Level Denver Center
08:22AM 40.8753 -101.8047 296° West 382 440 36,000  Level Denver Center
08:23AM 40.8583 -101.9489 261° West 357 411 36,000 -400 Level Denver Center
08:24AM 40.8158 -102.0644 244° Southwest 363 418 35,200 -992 Descending Denver Center
08:25AM 40.7731 -102.1878 245° Southwest 382 440 34,000 -1,339 Descending Denver Center
08:26AM 40.7233 -102.3278 245° Southwest 380 437 32,500 -1,289 Descending Denver Center
08:27AM 40.6814 -102.4436 245° Southwest 369 425 31,400 -1,041 Descending Denver Center
08:28AM 40.6403 -102.5578 245° Southwest 362 417 30,400 -1,050 Descending Denver Center
08:29AM 40.5986 -102.6744 245° Southwest 365 420 29,300 -1,091 Descending Denver Center
08:30AM 40.5511 -102.8011 244° Southwest 383 441 28,200 -1,091 Descending Denver Center
08:31AM 40.5039 -102.9325 245° Southwest 396 456 27,100 -1,091 Descending Denver Center
08:32AM 40.4556 -103.0653 244° Southwest 403 464 26,000 -1,140 Descending Denver Center
08:33AM 40.4069 -103.2000 245° Southwest 408 470 24,800 -1,190 Descending Denver Center
08:34AM 40.3597 -103.3233 243° Southwest 380 437 23,600 -1,091 Descending Denver Center
08:35AM 40.3797 -103.4419 283° West 368 423 22,600 -1,041 Descending Denver Center
08:36AM 40.3969 -103.5639 281° West 360 414 21,500 -1,140 Descending Denver Center
08:37AM 40.3256 -103.6819 232° Southwest 346 398 20,300 -1,041 Descending Denver Center
08:38AM 40.2600 -103.7714 226° Southwest 345 397 19,400 -1,041 Descending Denver Center
08:39AM 40.2064 -103.8619 232° Southwest 315 362 18,200 -1,350 Descending Denver Center
08:40AM 40.2128 -103.9708 274° West 304 350 16,700 -1,488 Descending Denver Center
08:41AM 40.2214 -104.0775 276° West 298 343 15,200 -1,426 Descending Denver Center
08:42AM 40.2319 -104.1853 277° West 300 345 13,800 -1,388 Descending Denver Center
08:43AM 40.2403 -104.2864 276° West 284 327 12,400 -1,339 Descending Denver Center
08:44AM 40.2289 -104.3811 261° West 261 300 11,100 -1,190 Descending Denver Center
08:45AM 40.2089 -104.4664 253° West 249 287 10,000 -1,041 Descending Denver Center
08:47AM 40.1769 -104.5431 241° Southwest 228 262 9,000 -496 Descending Denver Center
08:48AM 40.1272 -104.5856 213° Southwest 214 246 9,000 -50 Level Denver Center
08:49AM 40.0775 -104.6331 216° Southwest 221 254 8,900 -496 Descending Denver Center
08:50AM 40.0269 -104.6742 212° Southwest 216 249 8,000 -992 Descending Denver Center
08:51AM 39.9761 -104.6867 191° South 192 221 6,900 -934 Descending Denver Center
08:52AM 39.9333 -104.6864 180° South 158 182 6,100 -744 Descending Denver Center
08:53AM 39.8936 -104.6867 180° South 145 167 5,400 -700 Descending Denver Center